Observations for GUERNSEY AIRPORT, United Kingdom (EGJB)

EGJB 240920Z 29005KT 9999 1800NW VCFG FEW000 SCT001 BKN002 14/14 Q1017  
EGJB 240850Z 29003KT 9999 4500W FEW001 BKN002 BKN003 14/14 Q1017
EGJB 240820Z 28005KT 250V320 5000 BR FEW001 SCT002 BKN003 14/14 Q1017   
EGJB 240750Z 29008KT 0900 R27/0750 BCFG BKN000 BKN001 14/14 Q1016   
EGJB 240720Z 28007KT 0200 R27/0225 FG OVC000 14/14 Q1016
EGJB 240650Z VRB03KT 0150 R27/0250 FG OVC000 14/14 Q1016
EGJB 240620Z 26007KT 0250 R27/0375 FG BKN000 14/14 Q1016
EGJB 240550Z 25009KT 0100 R27/0250 FG OVC000 14/14 Q1015
EGJB 240520Z 24009KT 0150 R27/0175 FG OVC000 14/14 Q1016
EGJB 240450Z 24009KT 0150 R27/0325 FG OVC000 14/14 Q1015
EGJB 240420Z 27011KT 0150 R27/0225 FG OVC000 14/14 Q1014
EGJB 240350Z 27012KT 0300 FG BKN000 14/14 Q1014 
EGJB 240320Z 28011KT 1200 VCFG BR SCT000 BKN001 14/14 Q1014 
EGJB 240250Z 28011KT 5000 BR FEW001 BKN002 14/14 Q1013  
EGJB 240150Z 28012KT 9999 FEW004 15/14 Q1013
EGJB 240050Z 27012KT CAVOK 16/15 Q1013  
EGJB 232350Z 27007KT CAVOK 16/15 Q1013  
EGJB 232250Z 20008KT CAVOK 18/15 Q1013  
EGJB 232150Z 11006KT CAVOK 20/17 Q1012  
EGJB 232050Z 11005KT CAVOK 20/16 Q1012  
EGJB 231950Z 09006KT CAVOK 20/16 Q1012  
EGJB 231920Z 10010KT CAVOK 20/16 Q1011  
EGJB 231850Z 08006KT CAVOK 20/16 Q1012  
EGJB 231820Z 08007KT CAVOK 20/16 Q1012  
EGJB 231750Z 08007KT CAVOK 20/16 Q1011  
EGJB 231720Z 08009KT CAVOK 20/15 Q1011  
EGJB 231650Z 08010KT CAVOK 20/15 Q1011  
EGJB 231620Z 08010KT CAVOK 20/16 Q1011  
EGJB 231550Z 08010KT CAVOK 20/16 Q1012  
EGJB 231520Z 08007KT CAVOK 19/16 Q1012  
EGJB 231450Z 07007KT CAVOK 18/15 Q1012  
EGJB 231420Z 06006KT CAVOK 18/15 Q1012  
EGJB 231350Z 06006KT CAVOK 18/15 Q1013  
EGJB 231320Z 09004KT CAVOK 19/16 Q1013  
EGJB 231250Z 11007KT CAVOK 19/15 Q1013  
EGJB 231220Z 10005KT CAVOK 20/15 Q1013  
EGJB 231150Z 09005KT 9999 VCSH NSC 19/15 Q1013  
EGJB 231120Z 09008KT 9999 -SHRA FEW032 19/15 Q1013  
EGJB 231050Z 11007KT 9999 -SHRA FEW032 19/14 Q1014  
EGJB 231020Z 11010KT 9999 FEW032 20/15 Q1014
EGJB 230950Z 11009KT 9999 FEW032 20/14 Q1014
EGJB 230920Z 11009KT 9999 FEW032 19/14 Q1014
EGJB 230850Z 12008KT 9999 -SHRA FEW032 18/14 Q1015